createdAt,value
2023-03-20T00:00:54.538Z,101185.44
2023-03-20T00:03:57.680Z,101198.56
2023-03-20T00:07:00.439Z,101193.56
2023-03-20T00:10:05.032Z,101187.75
2023-03-20T00:13:12.314Z,101179.06
2023-03-20T00:16:15.279Z,101190.16
2023-03-20T00:19:19.833Z,101178.84
2023-03-20T00:22:23.009Z,101184.13
2023-03-20T00:25:28.466Z,101182.63
2023-03-20T00:28:38.969Z,101187.63
2023-03-20T00:31:41.875Z,101188.94
2023-03-20T00:34:44.600Z,101188.47
2023-03-20T00:37:47.448Z,101182.16
2023-03-20T00:40:52.501Z,101186.09
2023-03-20T00:43:59.334Z,101182.63
2023-03-20T00:47:04.445Z,101175.16
2023-03-20T00:50:09.184Z,101176.34
2023-03-20T00:53:13.114Z,101174.81
2023-03-20T00:56:34.172Z,101174.19
2023-03-20T00:59:41.364Z,101181.69
2023-03-20T01:02:44.181Z,101171.69
2023-03-20T01:05:47.959Z,101172.75
2023-03-20T01:08:53.273Z,101171.47
2023-03-20T01:11:57.616Z,101176.22
2023-03-20T01:15:01.139Z,101173.81
2023-03-20T01:18:03.905Z,101175.34
2023-03-20T01:21:07.405Z,101175.13
2023-03-20T01:24:10.482Z,101185.81
2023-03-20T01:27:16.421Z,101184.31
2023-03-20T01:30:23.769Z,101181.91
2023-03-20T01:33:27.816Z,101183.81
2023-03-20T01:36:30.831Z,101189.16
2023-03-20T01:39:36.247Z,101183.34
2023-03-20T01:42:40.534Z,101193.81
2023-03-20T01:45:53.954Z,101193.38
2023-03-20T01:49:00.746Z,101189.91
2023-03-20T01:52:03.640Z,101196.44
2023-03-20T01:55:06.810Z,101194.56
2023-03-20T01:58:17.595Z,101192.28
2023-03-20T02:01:20.783Z,101200.94
2023-03-20T02:04:27.558Z,101202.63
2023-03-20T02:07:32.977Z,101193.81
2023-03-20T02:10:36.333Z,101194.06
2023-03-20T02:13:41.082Z,101193.81
2023-03-20T02:16:44.110Z,101188.81
2023-03-20T02:19:57.422Z,101194.28
2023-03-20T02:23:39.349Z,101192.75
2023-03-20T02:26:53.577Z,101190.72
2023-03-20T02:30:31.232Z,101197.88
2023-03-20T02:34:22.577Z,101189.66
2023-03-20T02:37:57.072Z,101191.19
2023-03-20T02:41:04.051Z,101191.19
2023-03-20T02:44:11.514Z,101192.88
2023-03-20T02:47:18.821Z,101193.69
2023-03-20T02:50:32.337Z,101191.56
2023-03-20T02:53:43.494Z,101179.78
2023-03-20T02:56:57.173Z,101192.16
2023-03-20T03:00:09.889Z,101195.03
2023-03-20T03:03:18.136Z,101200.63
2023-03-20T03:06:26.150Z,101198.00
2023-03-20T03:09:33.137Z,101190.84
2023-03-20T03:12:39.480Z,101202.88
2023-03-20T03:15:46.120Z,101200.13
2023-03-20T03:18:54.257Z,101206.59
2023-03-20T03:21:57.111Z,101213.72
2023-03-20T03:25:01.528Z,101206.94
2023-03-20T03:28:08.742Z,101215.75
2023-03-20T03:31:16.449Z,101205.13
2023-03-20T03:34:22.462Z,101202.41
2023-03-20T03:37:38.091Z,101203.22
2023-03-20T03:40:45.594Z,101199.91
2023-03-20T03:43:55.215Z,101200.63
2023-03-20T03:47:03.995Z,101196.34
2023-03-20T03:50:11.470Z,101200.72
2023-03-20T03:53:16.044Z,101201.56
2023-03-20T03:56:24.895Z,101210.41
2023-03-20T03:59:32.565Z,101204.06
2023-03-20T04:02:36.577Z,101213.00
2023-03-20T04:05:43.917Z,101214.44
2023-03-20T04:08:46.917Z,101214.91
2023-03-20T04:11:53.198Z,101223.72
2023-03-20T04:14:55.920Z,101209.78
2023-03-20T04:17:58.770Z,101213.84
2023-03-20T04:21:01.575Z,101224.19
2023-03-20T04:24:04.688Z,101228.84
2023-03-20T04:27:08.824Z,101230.03
2023-03-20T04:30:12.965Z,101235.75
2023-03-20T04:33:16.539Z,101224.56
2023-03-20T04:36:19.323Z,101229.78
2023-03-20T04:39:22.236Z,101231.94
2023-03-20T04:42:26.420Z,101226.81
2023-03-20T04:45:29.204Z,101227.53
2023-03-20T04:48:31.893Z,101232.41
2023-03-20T04:51:34.814Z,101237.31
2023-03-20T04:54:37.542Z,101242.19
2023-03-20T04:57:42.073Z,101235.88
2023-03-20T05:00:45.302Z,101238.84
2023-03-20T05:03:48.057Z,101230.63
2023-03-20T05:06:50.959Z,101246.69
2023-03-20T05:09:53.688Z,101237.53
2023-03-20T05:12:57.902Z,101238.38
2023-03-20T05:16:01.276Z,101241.47
2023-03-20T05:19:03.990Z,101237.66
2023-03-20T05:22:06.730Z,101242.06
2023-03-20T05:25:10.010Z,101241.81
2023-03-20T05:28:14.212Z,101244.56
2023-03-20T05:31:16.913Z,101240.53
2023-03-20T05:34:19.698Z,101239.47
2023-03-20T05:37:22.474Z,101236.25
2023-03-20T05:40:25.443Z,101234.56
2023-03-20T05:43:30.294Z,101243.13
2023-03-20T05:46:33.037Z,101250.03
2023-03-20T05:49:36.155Z,101253.03
2023-03-20T05:52:38.951Z,101243.50
2023-03-20T05:55:44.485Z,101251.84
2023-03-20T05:58:48.665Z,101261.25
2023-03-20T06:01:51.638Z,101266.88
2023-03-20T06:04:54.650Z,101261.75
2023-03-20T06:07:57.374Z,101282.72
2023-03-20T06:11:00.457Z,101283.06
2023-03-20T06:14:04.572Z,101290.41
2023-03-20T06:17:07.345Z,101286.84
2023-03-20T06:20:11.361Z,101290.41
2023-03-20T06:23:14.139Z,101300.31
2023-03-20T06:26:16.851Z,101298.03
2023-03-20T06:29:21.277Z,101309.47
2023-03-20T06:32:24.243Z,101302.44
2023-03-20T06:35:31.248Z,101311.25
2023-03-20T06:38:33.969Z,101311.16
2023-03-20T06:41:37.175Z,101317.66
2023-03-20T06:44:41.287Z,101326.25
2023-03-20T06:47:44.142Z,101322.66
2023-03-20T06:50:47.414Z,101317.22
2023-03-20T06:53:50.241Z,101323.53
2023-03-20T06:56:53.239Z,101328.56
2023-03-20T06:59:57.314Z,101331.69
2023-03-20T07:03:02.223Z,101336.38
2023-03-20T07:06:06.586Z,101345.88
2023-03-20T07:09:09.468Z,101342.41
2023-03-20T07:12:14.805Z,101344.09
2023-03-20T07:15:19.658Z,101342.53
2023-03-20T07:18:22.795Z,101347.44
2023-03-20T07:21:26.431Z,101346.47
2023-03-20T07:24:29.325Z,101346.03
2023-03-20T07:27:32.076Z,101348.66
2023-03-20T07:30:36.394Z,101352.25
2023-03-20T07:33:39.129Z,101355.22
2023-03-20T07:36:42.252Z,101364.50
2023-03-20T07:39:46.435Z,101363.94
2023-03-20T07:42:49.948Z,101353.03
2023-03-20T07:45:54.082Z,101357.56
2023-03-20T07:48:58.308Z,101360.06
2023-03-20T07:52:02.170Z,101363.97
2023-03-20T07:55:05.979Z,101360.78
2023-03-20T07:58:08.799Z,101362.44
2023-03-20T08:01:13.000Z,101368.75
2023-03-20T08:04:19.372Z,101358.38
2023-03-20T08:07:22.160Z,101367.31
2023-03-20T08:10:25.688Z,101374.09
2023-03-20T08:13:28.423Z,101377.19
2023-03-20T08:16:32.726Z,101380.91
2023-03-20T08:19:36.348Z,101384.72
2023-03-20T08:22:39.241Z,101386.06
2023-03-20T08:25:42.035Z,101370.16
2023-03-20T08:28:47.840Z,101379.09
2023-03-20T08:31:52.460Z,101368.56
2023-03-20T08:34:56.333Z,101367.97
2023-03-20T08:37:59.138Z,101359.22
2023-03-20T08:41:01.853Z,101356.66
2023-03-20T08:44:04.546Z,101367.63
2023-03-20T08:47:10.600Z,101364.47
2023-03-20T08:50:13.456Z,101359.72
2023-03-20T08:53:16.183Z,101371.88
2023-03-20T08:56:19.070Z,101373.34
2023-03-20T08:59:21.743Z,101367.81
2023-03-20T09:02:26.206Z,101373.53
2023-03-20T09:05:29.084Z,101370.69
2023-03-20T09:08:32.202Z,101376.34
2023-03-20T09:11:35.412Z,101372.13
2023-03-20T09:14:38.384Z,101367.25
2023-03-20T09:17:42.708Z,101358.56
2023-03-20T09:20:45.416Z,101366.69
2023-03-20T09:23:48.517Z,101368.94
2023-03-20T09:26:52.283Z,101375.72
2023-03-20T09:29:55.011Z,101373.94
2023-03-20T09:32:59.151Z,101377.75
2023-03-20T09:36:01.983Z,101372.28
2023-03-20T09:39:05.256Z,101376.66
2023-03-20T09:42:23.247Z,101369.34
2023-03-20T09:45:41.265Z,101374.94
2023-03-20T09:48:55.101Z,101378.75
2023-03-20T09:52:00.280Z,101381.81
2023-03-20T09:55:08.804Z,101380.66
2023-03-20T09:58:16.307Z,101381.13
2023-03-20T10:01:23.687Z,101383.84
2023-03-20T10:04:31.196Z,101384.44
2023-03-20T10:07:33.927Z,101388.28
2023-03-20T10:10:47.299Z,101384.59
2023-03-20T10:14:02.908Z,101370.09
2023-03-20T10:17:21.837Z,101386.00
2023-03-20T10:20:31.236Z,101387.50
2023-03-20T10:23:37.501Z,101385.28
2023-03-20T10:26:41.002Z,101383.59
2023-03-20T10:29:52.785Z,101377.13
2023-03-20T10:33:09.210Z,101384.94
2023-03-20T10:36:29.055Z,101373.91
2023-03-20T10:39:50.637Z,101382.78
2023-03-20T10:42:57.124Z,101374.47
2023-03-20T10:46:03.877Z,101371.38
2023-03-20T10:49:14.406Z,101374.25
2023-03-20T10:52:21.752Z,101378.28
2023-03-20T10:55:29.065Z,101376.41
2023-03-20T10:58:35.054Z,101362.97
2023-03-20T11:01:37.873Z,101364.00
2023-03-20T11:04:40.698Z,101358.09
2023-03-20T11:07:46.339Z,101359.31
2023-03-20T11:11:00.069Z,101363.25
2023-03-20T11:14:16.741Z,101366.09
2023-03-20T11:17:19.494Z,101363.34
2023-03-20T11:20:22.757Z,101370.84
2023-03-20T11:23:30.242Z,101360.72
2023-03-20T11:26:37.020Z,101360.75
2023-03-20T11:29:42.684Z,101355.72
2023-03-20T11:32:49.648Z,101359.88
2023-03-20T11:39:24.342Z,101364.59
2023-03-20T11:42:29.291Z,101363.94
2023-03-20T11:45:36.784Z,101347.59
2023-03-20T11:48:41.119Z,101350.31
2023-03-20T11:51:44.014Z,101342.63
2023-03-20T11:54:51.101Z,101343.06
2023-03-20T11:57:58.345Z,101338.84
2023-03-20T12:01:03.948Z,101343.63
2023-03-20T12:04:11.187Z,101340.22
2023-03-20T12:07:17.809Z,101334.75
2023-03-20T12:10:23.006Z,101327.28
2023-03-20T12:13:29.892Z,101324.09
2023-03-20T12:16:36.742Z,101318.13
2023-03-20T12:19:41.536Z,101321.03
2023-03-20T12:22:52.649Z,101326.53
2023-03-20T12:26:01.083Z,101317.41
2023-03-20T12:29:07.982Z,101322.91
2023-03-20T12:32:18.150Z,101327.28
2023-03-20T12:35:27.467Z,101318.63
2023-03-20T12:38:32.784Z,101318.16
2023-03-20T12:41:47.785Z,101319.47
2023-03-20T12:44:54.577Z,101309.75
2023-03-20T12:48:17.010Z,101313.22
2023-03-20T12:51:29.366Z,101311.91
2023-03-20T12:54:43.669Z,101301.63
2023-03-20T12:58:08.491Z,101298.63
2023-03-20T13:01:18.307Z,101293.31
2023-03-20T13:04:45.306Z,101300.13
2023-03-20T13:08:01.873Z,101296.38
2023-03-20T13:11:13.060Z,101303.44
2023-03-20T13:14:25.602Z,101300.44
2023-03-20T13:17:35.424Z,101296.59
2023-03-20T13:20:47.760Z,101299.16
2023-03-20T13:23:59.877Z,101279.69
2023-03-20T13:27:12.896Z,101277.50
2023-03-20T13:30:26.127Z,101284.50
2023-03-20T13:33:43.395Z,101280.22
2023-03-20T13:37:12.396Z,101279.81
2023-03-20T13:40:27.240Z,101284.97
2023-03-20T13:43:34.670Z,101285.50
2023-03-20T13:46:43.328Z,101283.31
2023-03-20T13:49:54.946Z,101281.19
2023-03-20T13:53:04.250Z,101278.00
2023-03-20T13:56:16.465Z,101275.59
2023-03-20T13:59:41.476Z,101279.22
2023-03-20T14:03:06.555Z,101276.41
2023-03-20T14:06:42.770Z,101283.47
2023-03-20T14:09:46.603Z,101283.31
2023-03-20T14:12:50.312Z,101279.28
2023-03-20T14:15:56.281Z,101278.66
2023-03-20T14:19:18.216Z,101272.00
2023-03-20T14:22:23.352Z,101274.28
2023-03-20T14:25:28.171Z,101273.19
2023-03-20T14:28:34.657Z,101264.13
2023-03-20T14:31:38.874Z,101256.44
2023-03-20T14:34:49.065Z,101260.63
2023-03-20T14:38:09.978Z,101261.75
2023-03-20T14:41:17.750Z,101268.28
2023-03-20T14:44:31.380Z,101262.94
2023-03-20T14:47:45.587Z,101258.25
2023-03-20T14:51:03.985Z,101254.59
2023-03-20T14:54:28.083Z,101252.97
2023-03-20T14:57:48.691Z,101253.75
2023-03-20T15:00:55.804Z,101246.06
2023-03-20T15:04:02.610Z,101252.75
2023-03-20T15:07:14.586Z,101253.50
2023-03-20T15:10:19.519Z,101240.63
2023-03-20T15:13:24.794Z,101243.53
2023-03-20T15:16:30.453Z,101236.75
2023-03-20T15:19:33.729Z,101242.88
2023-03-20T15:22:48.943Z,101244.03
2023-03-20T15:25:51.962Z,101225.34
2023-03-20T15:29:01.931Z,101233.03
2023-03-20T15:32:14.381Z,101229.69
2023-03-20T15:35:20.726Z,101229.94
2023-03-20T15:38:31.269Z,101229.22
2023-03-20T15:41:35.924Z,101227.97
2023-03-20T15:44:40.532Z,101237.75
2023-03-20T15:47:44.174Z,101233.28
2023-03-20T15:50:49.958Z,101241.28
2023-03-20T15:53:54.230Z,101238.06
2023-03-20T15:57:00.836Z,101237.91
2023-03-20T16:00:05.880Z,101242.34
2023-03-20T16:03:12.773Z,101242.81
2023-03-20T16:06:20.166Z,101247.75
2023-03-20T16:09:25.084Z,101241.66
2023-03-20T16:12:28.750Z,101248.94
2023-03-20T16:15:33.855Z,101248.94
2023-03-20T16:18:39.558Z,101247.84
2023-03-20T16:21:47.616Z,101246.81
2023-03-20T16:24:55.625Z,101255.63
2023-03-20T16:27:59.945Z,101247.38
2023-03-20T16:31:10.327Z,101251.13
2023-03-20T16:34:19.751Z,101245.72
2023-03-20T16:37:27.340Z,101245.97
2023-03-20T16:40:34.300Z,101245.53
2023-03-20T16:43:39.609Z,101248.84
2023-03-20T16:46:58.282Z,101239.28
2023-03-20T16:50:22.003Z,101244.16
2023-03-20T16:53:24.968Z,101244.00
2023-03-20T16:56:34.564Z,101246.47
2023-03-20T16:59:40.940Z,101243.66
2023-03-20T17:02:46.015Z,101242.84
2023-03-20T17:05:56.231Z,101251.81
2023-03-20T17:09:03.505Z,101254.22
2023-03-20T17:12:16.089Z,101256.16
2023-03-20T17:15:20.768Z,101251.81
2023-03-20T17:18:23.511Z,101269.31
2023-03-20T17:21:26.471Z,101266.72
2023-03-20T17:24:29.308Z,101261.69
2023-03-20T17:27:34.374Z,101258.63
2023-03-20T17:30:37.240Z,101266.03
2023-03-20T17:33:40.125Z,101271.78
2023-03-20T17:36:43.136Z,101277.50
2023-03-20T17:39:45.840Z,101279.75
2023-03-20T17:42:50.172Z,101285.56
2023-03-20T17:45:53.025Z,101284.03
2023-03-20T17:49:00.156Z,101275.16
2023-03-20T17:52:02.929Z,101283.38
2023-03-20T17:55:06.380Z,101281.22
2023-03-20T17:58:17.351Z,101277.06
2023-03-20T18:01:20.430Z,101270.63
2023-03-20T18:04:24.226Z,101268.06
2023-03-20T18:07:27.122Z,101268.63
2023-03-20T18:10:32.892Z,101276.03
2023-03-20T18:13:37.295Z,101274.94
2023-03-20T18:16:40.012Z,101272.91
2023-03-20T18:19:43.808Z,101270.44
2023-03-20T18:22:46.694Z,101273.16
2023-03-20T18:25:49.473Z,101270.09
2023-03-20T18:28:55.509Z,101274.75
2023-03-20T18:31:58.298Z,101276.66
2023-03-20T18:35:01.016Z,101271.44
2023-03-20T18:38:04.590Z,101271.09
2023-03-20T18:41:08.511Z,101269.31
2023-03-20T18:44:13.193Z,101275.38
2023-03-20T18:47:15.901Z,101273.38
2023-03-20T18:50:27.422Z,101271.72
2023-03-20T18:53:32.418Z,101274.13
2023-03-20T18:56:36.809Z,101276.50
2023-03-20T18:59:41.098Z,101286.06
2023-03-20T19:02:43.881Z,101286.31
2023-03-20T19:05:46.750Z,101276.06
2023-03-20T19:08:51.528Z,101288.94
2023-03-20T19:11:54.407Z,101277.97
2023-03-20T19:14:58.474Z,101287.88
2023-03-20T19:18:01.235Z,101292.41
2023-03-20T19:21:04.428Z,101302.28
2023-03-20T19:24:08.992Z,101301.72
2023-03-20T19:27:17.562Z,101299.81
2023-03-20T19:30:33.300Z,101299.09
2023-03-20T19:33:36.250Z,101304.34
2023-03-20T19:36:39.143Z,101294.34
2023-03-20T19:39:41.874Z,101297.47
2023-03-20T19:43:01.062Z,101292.69
2023-03-20T19:46:09.584Z,101297.72
2023-03-20T19:49:19.076Z,101292.00
2023-03-20T19:52:30.245Z,101286.38
2023-03-20T19:55:33.379Z,101291.50
2023-03-20T19:58:36.068Z,101297.47
2023-03-20T20:01:40.502Z,101301.06
2023-03-20T20:04:43.259Z,101283.78
2023-03-20T20:08:17.050Z,101286.75
2023-03-20T20:11:11.814Z,101295.81
2023-03-20T20:14:15.484Z,101294.16
2023-03-20T20:17:19.566Z,101290.78
2023-03-20T20:20:25.044Z,101294.59
2023-03-20T20:23:29.848Z,101292.13
2023-03-20T20:26:38.908Z,101289.38
2023-03-20T20:29:44.184Z,101283.06
2023-03-20T20:32:48.714Z,101292.84
2023-03-20T20:36:26.941Z,101290.09
2023-03-20T20:39:14.444Z,101280.22
2023-03-20T20:42:18.484Z,101284.03
2023-03-20T20:45:22.909Z,101285.94
2023-03-20T20:48:27.244Z,101285.56
2023-03-20T20:51:31.721Z,101286.88
2023-03-20T20:54:35.069Z,101285.47
2023-03-20T20:57:38.049Z,101293.91
2023-03-20T21:00:51.686Z,101280.66
2023-03-20T21:03:58.429Z,101270.78
2023-03-20T21:07:09.793Z,101258.50
2023-03-20T21:10:16.782Z,101274.75
2023-03-20T21:13:19.471Z,101279.84
2023-03-20T21:16:23.579Z,101264.38
2023-03-20T21:19:28.247Z,101252.91
2023-03-20T21:22:31.260Z,101274.59
2023-03-20T21:25:45.489Z,101277.19
2023-03-20T21:28:49.870Z,101277.69
2023-03-20T21:31:52.664Z,101281.16
2023-03-20T21:34:57.024Z,101280.66
2023-03-20T21:41:23.272Z,101295.63
2023-03-20T21:45:04.584Z,101286.69
2023-03-20T22:12:14.510Z,101299.47
2023-03-20T22:22:26.690Z,101301.50
2023-03-20T22:25:50.707Z,101301.72
2023-03-20T22:32:49.705Z,101304.22
2023-03-20T22:45:38.022Z,101285.19
2023-03-20T22:48:46.106Z,101299.00
2023-03-20T22:52:07.794Z,101302.19
2023-03-20T22:55:11.660Z,101303.03
2023-03-20T22:58:17.368Z,101302.78
2023-03-20T23:01:20.355Z,101302.19
2023-03-20T23:04:23.488Z,101304.69
2023-03-20T23:07:26.219Z,101300.38
2023-03-20T23:10:29.056Z,101305.63
2023-03-20T23:13:33.100Z,101298.38
2023-03-20T23:16:36.362Z,101298.97
2023-03-20T23:19:47.960Z,101309.69
2023-03-20T23:22:53.251Z,101295.16
2023-03-20T23:26:03.574Z,101292.41
2023-03-20T23:29:07.894Z,101298.50
2023-03-20T23:32:10.775Z,101293.50
2023-03-20T23:35:13.688Z,101301.13
2023-03-20T23:38:16.394Z,101298.84
2023-03-20T23:41:19.340Z,101302.97
2023-03-20T23:44:23.502Z,101297.88
2023-03-20T23:47:30.098Z,101298.34
2023-03-20T23:50:51.804Z,101309.06
2023-03-20T23:53:55.384Z,101295.34
2023-03-20T23:56:58.349Z,101291.16
